sensor_id;sensor_type;location;lat;lon;timestamp;P1;durP1;ratioP1;P2;durP2;ratioP2
16516;SDS011;8371;52.272;9.746;2022-09-24T00:01:29;1.50;;;1.50;;
16516;SDS011;8371;52.272;9.746;2022-09-24T00:04:03;1.53;;;1.53;;
16516;SDS011;8371;52.272;9.746;2022-09-24T00:06:39;1.30;;;1.30;;
16516;SDS011;8371;52.272;9.746;2022-09-24T00:09:05;1.47;;;1.47;;
16516;SDS011;8371;52.272;9.746;2022-09-24T00:11:31;1.33;;;1.33;;
16516;SDS011;8371;52.272;9.746;2022-09-24T00:13:57;1.23;;;1.23;;
16516;SDS011;8371;52.272;9.746;2022-09-24T00:16:24;1.23;;;1.23;;
16516;SDS011;8371;52.272;9.746;2022-09-24T00:18:52;1.40;;;1.40;;
16516;SDS011;8371;52.272;9.746;2022-09-24T00:21:26;1.40;;;1.40;;
16516;SDS011;8371;52.272;9.746;2022-09-24T00:23:54;1.07;;;1.07;;
16516;SDS011;8371;52.272;9.746;2022-09-24T00:26:22;1.30;;;1.30;;
16516;SDS011;8371;52.272;9.746;2022-09-24T00:29:07;0.90;;;0.90;;
16516;SDS011;8371;52.272;9.746;2022-09-24T00:31:34;1.37;;;1.37;;
16516;SDS011;8371;52.272;9.746;2022-09-24T00:34:01;1.20;;;1.20;;
16516;SDS011;8371;52.272;9.746;2022-09-24T00:36:27;1.70;;;1.60;;
16516;SDS011;8371;52.272;9.746;2022-09-24T00:38:54;1.50;;;1.50;;
16516;SDS011;8371;52.272;9.746;2022-09-24T00:41:22;1.83;;;1.70;;
16516;SDS011;8371;52.272;9.746;2022-09-24T00:43:50;1.37;;;1.37;;
16516;SDS011;8371;52.272;9.746;2022-09-24T00:49:06;1.40;;;1.40;;
16516;SDS011;8371;52.272;9.746;2022-09-24T00:51:38;1.90;;;1.50;;
16516;SDS011;8371;52.272;9.746;2022-09-24T00:54:08;1.30;;;1.30;;
16516;SDS011;8371;52.272;9.746;2022-09-24T00:56:37;1.87;;;1.77;;
16516;SDS011;8371;52.272;9.746;2022-09-24T00:59:05;1.20;;;1.20;;
16516;SDS011;8371;52.272;9.746;2022-09-24T01:01:35;1.40;;;1.40;;
16516;SDS011;8371;52.272;9.746;2022-09-24T01:04:01;1.70;;;1.60;;
16516;SDS011;8371;52.272;9.746;2022-09-24T01:06:29;1.47;;;1.47;;
16516;SDS011;8371;52.272;9.746;2022-09-24T01:08:55;1.40;;;1.40;;
16516;SDS011;8371;52.272;9.746;2022-09-24T01:20:36;1.40;;;1.40;;
16516;SDS011;8371;52.272;9.746;2022-09-24T01:22:45;1.20;;;1.20;;
16516;SDS011;8371;52.272;9.746;2022-09-24T01:31:44;1.87;;;1.67;;
16516;SDS011;8371;52.272;9.746;2022-09-24T01:33:52;1.50;;;1.50;;
16516;SDS011;8371;52.272;9.746;2022-09-24T01:36:20;1.50;;;1.50;;
16516;SDS011;8371;52.272;9.746;2022-09-24T01:38:48;1.13;;;1.10;;
16516;SDS011;8371;52.272;9.746;2022-09-24T01:41:17;1.50;;;1.50;;
16516;SDS011;8371;52.272;9.746;2022-09-24T01:43:44;1.30;;;1.30;;
16516;SDS011;8371;52.272;9.746;2022-09-24T01:46:10;1.50;;;1.50;;
16516;SDS011;8371;52.272;9.746;2022-09-24T01:48:37;1.67;;;1.57;;
16516;SDS011;8371;52.272;9.746;2022-09-24T01:51:07;1.20;;;1.20;;
16516;SDS011;8371;52.272;9.746;2022-09-24T01:53:54;1.03;;;1.03;;
16516;SDS011;8371;52.272;9.746;2022-09-24T01:56:40;1.03;;;1.03;;
16516;SDS011;8371;52.272;9.746;2022-09-24T01:59:13;1.10;;;1.10;;
16516;SDS011;8371;52.272;9.746;2022-09-24T02:01:47;1.27;;;1.27;;
16516;SDS011;8371;52.272;9.746;2022-09-24T02:04:32;1.80;;;1.30;;
16516;SDS011;8371;52.272;9.746;2022-09-24T02:07:01;1.00;;;1.00;;
16516;SDS011;8371;52.272;9.746;2022-09-24T02:12:14;6.40;;;1.40;;
16516;SDS011;8371;52.272;9.746;2022-09-24T02:14:43;1.27;;;1.17;;
16516;SDS011;8371;52.272;9.746;2022-09-24T02:17:10;1.30;;;1.20;;
16516;SDS011;8371;52.272;9.746;2022-09-24T02:19:37;1.30;;;1.30;;
16516;SDS011;8371;52.272;9.746;2022-09-24T02:22:06;1.00;;;1.00;;
16516;SDS011;8371;52.272;9.746;2022-09-24T02:24:43;1.30;;;1.30;;
16516;SDS011;8371;52.272;9.746;2022-09-24T02:27:18;1.40;;;1.40;;
16516;SDS011;8371;52.272;9.746;2022-09-24T02:29:45;1.20;;;1.20;;
16516;SDS011;8371;52.272;9.746;2022-09-24T02:32:13;1.90;;;1.50;;
16516;SDS011;8371;52.272;9.746;2022-09-24T02:34:42;1.40;;;1.40;;
16516;SDS011;8371;52.272;9.746;2022-09-24T02:37:12;1.20;;;1.20;;
16516;SDS011;8371;52.272;9.746;2022-09-24T02:39:39;1.23;;;1.23;;
16516;SDS011;8371;52.272;9.746;2022-09-24T02:42:06;1.27;;;1.27;;
16516;SDS011;8371;52.272;9.746;2022-09-24T02:44:33;1.40;;;1.30;;
16516;SDS011;8371;52.272;9.746;2022-09-24T02:47:00;1.20;;;1.20;;
16516;SDS011;8371;52.272;9.746;2022-09-24T02:49:26;1.40;;;1.40;;
16516;SDS011;8371;52.272;9.746;2022-09-24T02:51:52;1.33;;;1.33;;
16516;SDS011;8371;52.272;9.746;2022-09-24T02:54:18;1.50;;;1.50;;
16516;SDS011;8371;52.272;9.746;2022-09-24T02:56:44;1.43;;;1.43;;
16516;SDS011;8371;52.272;9.746;2022-09-24T02:59:09;1.63;;;1.63;;
16516;SDS011;8371;52.272;9.746;2022-09-24T03:01:36;1.30;;;1.30;;
16516;SDS011;8371;52.272;9.746;2022-09-24T03:04:02;1.73;;;1.70;;
16516;SDS011;8371;52.272;9.746;2022-09-24T03:06:28;1.90;;;1.90;;
16516;SDS011;8371;52.272;9.746;2022-09-24T03:08:54;1.77;;;1.77;;
16516;SDS011;8371;52.272;9.746;2022-09-24T03:11:21;2.00;;;2.00;;
16516;SDS011;8371;52.272;9.746;2022-09-24T03:13:47;1.40;;;1.40;;
16516;SDS011;8371;52.272;9.746;2022-09-24T03:16:13;1.80;;;1.80;;
16516;SDS011;8371;52.272;9.746;2022-09-24T03:18:40;1.57;;;1.57;;
16516;SDS011;8371;52.272;9.746;2022-09-24T03:21:07;1.80;;;1.80;;
16516;SDS011;8371;52.272;9.746;2022-09-24T03:23:35;1.80;;;1.70;;
16516;SDS011;8371;52.272;9.746;2022-09-24T03:26:01;1.63;;;1.63;;
16516;SDS011;8371;52.272;9.746;2022-09-24T03:28:27;1.70;;;1.70;;
16516;SDS011;8371;52.272;9.746;2022-09-24T03:30:53;1.70;;;1.70;;
16516;SDS011;8371;52.272;9.746;2022-09-24T03:33:25;1.27;;;1.27;;
16516;SDS011;8371;52.272;9.746;2022-09-24T03:36:00;1.53;;;1.53;;
16516;SDS011;8371;52.272;9.746;2022-09-24T03:38:45;2.80;;;1.67;;
16516;SDS011;8371;52.272;9.746;2022-09-24T03:41:13;1.80;;;1.80;;
16516;SDS011;8371;52.272;9.746;2022-09-24T03:43:38;1.60;;;1.60;;
16516;SDS011;8371;52.272;9.746;2022-09-24T03:46:05;2.00;;;1.77;;
16516;SDS011;8371;52.272;9.746;2022-09-24T03:48:36;1.63;;;1.63;;
16516;SDS011;8371;52.272;9.746;2022-09-24T03:51:04;1.50;;;1.50;;
16516;SDS011;8371;52.272;9.746;2022-09-24T03:53:31;1.47;;;1.47;;
16516;SDS011;8371;52.272;9.746;2022-09-24T03:55:57;1.90;;;1.90;;
16516;SDS011;8371;52.272;9.746;2022-09-24T03:58:24;1.53;;;1.53;;
16516;SDS011;8371;52.272;9.746;2022-09-24T04:00:50;1.10;;;1.10;;
16516;SDS011;8371;52.272;9.746;2022-09-24T04:03:18;1.60;;;1.60;;
16516;SDS011;8371;52.272;9.746;2022-09-24T04:05:45;1.77;;;1.77;;
16516;SDS011;8371;52.272;9.746;2022-09-24T04:08:11;1.80;;;1.80;;
16516;SDS011;8371;52.272;9.746;2022-09-24T04:10:37;1.27;;;1.27;;
16516;SDS011;8371;52.272;9.746;2022-09-24T04:13:02;1.63;;;1.63;;
16516;SDS011;8371;52.272;9.746;2022-09-24T04:15:28;1.37;;;1.37;;
16516;SDS011;8371;52.272;9.746;2022-09-24T04:17:57;2.07;;;1.80;;
16516;SDS011;8371;52.272;9.746;2022-09-24T04:20:25;1.80;;;1.80;;
16516;SDS011;8371;52.272;9.746;2022-09-24T04:22:53;1.53;;;1.53;;
16516;SDS011;8371;52.272;9.746;2022-09-24T04:25:20;1.60;;;1.60;;
16516;SDS011;8371;52.272;9.746;2022-09-24T04:27:51;1.70;;;1.70;;
16516;SDS011;8371;52.272;9.746;2022-09-24T04:30:18;1.83;;;1.83;;
16516;SDS011;8371;52.272;9.746;2022-09-24T04:32:44;1.70;;;1.70;;
16516;SDS011;8371;52.272;9.746;2022-09-24T04:35:10;2.10;;;1.90;;
16516;SDS011;8371;52.272;9.746;2022-09-24T04:37:35;1.27;;;1.27;;
16516;SDS011;8371;52.272;9.746;2022-09-24T04:40:02;1.40;;;1.40;;
16516;SDS011;8371;52.272;9.746;2022-09-24T04:42:29;1.43;;;1.40;;
16516;SDS011;8371;52.272;9.746;2022-09-24T04:44:55;1.60;;;1.60;;
16516;SDS011;8371;52.272;9.746;2022-09-24T04:47:21;1.57;;;1.57;;
16516;SDS011;8371;52.272;9.746;2022-09-24T04:49:48;1.73;;;1.73;;
16516;SDS011;8371;52.272;9.746;2022-09-24T04:52:14;1.60;;;1.60;;
16516;SDS011;8371;52.272;9.746;2022-09-24T04:54:44;1.77;;;1.67;;
16516;SDS011;8371;52.272;9.746;2022-09-24T04:57:16;1.93;;;1.83;;
16516;SDS011;8371;52.272;9.746;2022-09-24T04:59:39;1.60;;;1.60;;
16516;SDS011;8371;52.272;9.746;2022-09-24T05:02:05;1.50;;;1.50;;
16516;SDS011;8371;52.272;9.746;2022-09-24T05:04:37;1.60;;;1.60;;
16516;SDS011;8371;52.272;9.746;2022-09-24T05:07:02;1.43;;;1.43;;
16516;SDS011;8371;52.272;9.746;2022-09-24T05:09:28;1.60;;;1.60;;
16516;SDS011;8371;52.272;9.746;2022-09-24T05:11:55;1.47;;;1.47;;
16516;SDS011;8371;52.272;9.746;2022-09-24T05:14:21;1.80;;;1.80;;
16516;SDS011;8371;52.272;9.746;2022-09-24T05:16:47;1.73;;;1.73;;
16516;SDS011;8371;52.272;9.746;2022-09-24T05:19:12;2.27;;;2.17;;
16516;SDS011;8371;52.272;9.746;2022-09-24T05:21:38;1.67;;;1.67;;
16516;SDS011;8371;52.272;9.746;2022-09-24T05:24:04;2.00;;;2.00;;
16516;SDS011;8371;52.272;9.746;2022-09-24T05:26:30;1.73;;;1.73;;
16516;SDS011;8371;52.272;9.746;2022-09-24T05:29:14;2.53;;;1.67;;
16516;SDS011;8371;52.272;9.746;2022-09-24T05:31:39;1.57;;;1.57;;
16516;SDS011;8371;52.272;9.746;2022-09-24T05:34:05;2.27;;;2.27;;
16516;SDS011;8371;52.272;9.746;2022-09-24T05:36:31;1.80;;;1.80;;
16516;SDS011;8371;52.272;9.746;2022-09-24T05:38:56;1.90;;;1.90;;
16516;SDS011;8371;52.272;9.746;2022-09-24T05:41:22;2.50;;;2.40;;
16516;SDS011;8371;52.272;9.746;2022-09-24T05:43:48;2.20;;;2.00;;
16516;SDS011;8371;52.272;9.746;2022-09-24T05:46:14;1.87;;;1.80;;
16516;SDS011;8371;52.272;9.746;2022-09-24T05:48:39;1.97;;;1.87;;
16516;SDS011;8371;52.272;9.746;2022-09-24T05:51:05;2.03;;;1.97;;
16516;SDS011;8371;52.272;9.746;2022-09-24T05:53:31;1.80;;;1.67;;
16516;SDS011;8371;52.272;9.746;2022-09-24T05:55:58;2.07;;;1.97;;
16516;SDS011;8371;52.272;9.746;2022-09-24T05:58:23;1.80;;;1.80;;
16516;SDS011;8371;52.272;9.746;2022-09-24T06:00:50;2.30;;;1.90;;
16516;SDS011;8371;52.272;9.746;2022-09-24T06:03:17;1.80;;;1.80;;
16516;SDS011;8371;52.272;9.746;2022-09-24T06:05:44;2.50;;;2.40;;
16516;SDS011;8371;52.272;9.746;2022-09-24T06:08:13;1.80;;;1.80;;
16516;SDS011;8371;52.272;9.746;2022-09-24T06:10:40;1.70;;;1.70;;
16516;SDS011;8371;52.272;9.746;2022-09-24T06:13:07;1.67;;;1.67;;
16516;SDS011;8371;52.272;9.746;2022-09-24T06:15:35;1.80;;;1.80;;
16516;SDS011;8371;52.272;9.746;2022-09-24T06:18:02;2.30;;;2.20;;
16516;SDS011;8371;52.272;9.746;2022-09-24T06:20:27;2.03;;;2.03;;
16516;SDS011;8371;52.272;9.746;2022-09-24T06:22:53;2.60;;;2.50;;
16516;SDS011;8371;52.272;9.746;2022-09-24T06:25:22;2.33;;;2.23;;
16516;SDS011;8371;52.272;9.746;2022-09-24T06:27:56;1.90;;;1.90;;
16516;SDS011;8371;52.272;9.746;2022-09-24T06:30:25;1.93;;;1.93;;
16516;SDS011;8371;52.272;9.746;2022-09-24T06:32:52;2.50;;;2.40;;
16516;SDS011;8371;52.272;9.746;2022-09-24T06:35:18;2.07;;;2.03;;
16516;SDS011;8371;52.272;9.746;2022-09-24T06:37:45;2.93;;;2.83;;
16516;SDS011;8371;52.272;9.746;2022-09-24T06:40:12;3.30;;;3.20;;
16516;SDS011;8371;52.272;9.746;2022-09-24T06:42:38;2.93;;;2.83;;
16516;SDS011;8371;52.272;9.746;2022-09-24T06:45:04;2.33;;;2.33;;
16516;SDS011;8371;52.272;9.746;2022-09-24T06:47:30;2.70;;;2.50;;
16516;SDS011;8371;52.272;9.746;2022-09-24T06:49:56;2.60;;;2.50;;
16516;SDS011;8371;52.272;9.746;2022-09-24T06:52:22;2.10;;;2.10;;
16516;SDS011;8371;52.272;9.746;2022-09-24T06:54:47;2.80;;;2.70;;
16516;SDS011;8371;52.272;9.746;2022-09-24T06:57:13;2.27;;;2.17;;
16516;SDS011;8371;52.272;9.746;2022-09-24T06:59:40;2.73;;;2.63;;
16516;SDS011;8371;52.272;9.746;2022-09-24T07:02:06;2.23;;;2.13;;
16516;SDS011;8371;52.272;9.746;2022-09-24T07:04:34;2.20;;;2.10;;
16516;SDS011;8371;52.272;9.746;2022-09-24T07:07:00;2.33;;;2.33;;
16516;SDS011;8371;52.272;9.746;2022-09-24T07:09:44;2.47;;;2.33;;
16516;SDS011;8371;52.272;9.746;2022-09-24T07:12:09;2.57;;;2.47;;
16516;SDS011;8371;52.272;9.746;2022-09-24T07:14:35;2.07;;;2.07;;
16516;SDS011;8371;52.272;9.746;2022-09-24T07:17:01;3.07;;;2.77;;
16516;SDS011;8371;52.272;9.746;2022-09-24T07:19:27;2.47;;;2.37;;
16516;SDS011;8371;52.272;9.746;2022-09-24T07:21:52;2.57;;;2.47;;
16516;SDS011;8371;52.272;9.746;2022-09-24T07:24:18;3.17;;;2.93;;
16516;SDS011;8371;52.272;9.746;2022-09-24T07:26:44;2.70;;;2.60;;
16516;SDS011;8371;52.272;9.746;2022-09-24T07:29:09;2.87;;;2.77;;
16516;SDS011;8371;52.272;9.746;2022-09-24T07:31:35;2.80;;;2.60;;
16516;SDS011;8371;52.272;9.746;2022-09-24T07:34:01;3.00;;;2.77;;
16516;SDS011;8371;52.272;9.746;2022-09-24T07:36:26;3.43;;;3.13;;
16516;SDS011;8371;52.272;9.746;2022-09-24T07:38:54;2.90;;;2.80;;
16516;SDS011;8371;52.272;9.746;2022-09-24T07:41:19;3.20;;;3.10;;
16516;SDS011;8371;52.272;9.746;2022-09-24T07:43:45;2.67;;;2.60;;
16516;SDS011;8371;52.272;9.746;2022-09-24T07:46:12;2.93;;;2.83;;
16516;SDS011;8371;52.272;9.746;2022-09-24T07:48:37;3.13;;;3.03;;
16516;SDS011;8371;52.272;9.746;2022-09-24T07:51:03;3.03;;;2.93;;
16516;SDS011;8371;52.272;9.746;2022-09-24T07:53:30;3.20;;;3.10;;
16516;SDS011;8371;52.272;9.746;2022-09-24T07:55:59;3.60;;;3.50;;
16516;SDS011;8371;52.272;9.746;2022-09-24T07:58:25;3.10;;;3.00;;
16516;SDS011;8371;52.272;9.746;2022-09-24T08:00:51;3.00;;;2.90;;
16516;SDS011;8371;52.272;9.746;2022-09-24T08:03:17;3.47;;;3.37;;
16516;SDS011;8371;52.272;9.746;2022-09-24T08:05:43;3.47;;;3.37;;
16516;SDS011;8371;52.272;9.746;2022-09-24T08:08:09;3.57;;;3.37;;
16516;SDS011;8371;52.272;9.746;2022-09-24T08:10:35;3.27;;;3.07;;
16516;SDS011;8371;52.272;9.746;2022-09-24T08:13:02;2.90;;;2.80;;
16516;SDS011;8371;52.272;9.746;2022-09-24T08:15:28;3.57;;;3.40;;
16516;SDS011;8371;52.272;9.746;2022-09-24T08:17:59;3.00;;;2.90;;
16516;SDS011;8371;52.272;9.746;2022-09-24T08:20:25;3.07;;;2.97;;
16516;SDS011;8371;52.272;9.746;2022-09-24T08:22:51;3.37;;;3.27;;
16516;SDS011;8371;52.272;9.746;2022-09-24T08:25:17;2.83;;;2.73;;
16516;SDS011;8371;52.272;9.746;2022-09-24T08:27:42;3.77;;;3.57;;
16516;SDS011;8371;52.272;9.746;2022-09-24T08:30:08;3.63;;;3.50;;
16516;SDS011;8371;52.272;9.746;2022-09-24T08:32:35;3.53;;;3.23;;
16516;SDS011;8371;52.272;9.746;2022-09-24T08:35:00;3.97;;;3.77;;
16516;SDS011;8371;52.272;9.746;2022-09-24T08:37:27;3.60;;;3.50;;
16516;SDS011;8371;52.272;9.746;2022-09-24T08:39:53;3.33;;;3.23;;
16516;SDS011;8371;52.272;9.746;2022-09-24T08:44:51;2.43;;;2.33;;
16516;SDS011;8371;52.272;9.746;2022-09-24T08:47:49;2.63;;;2.53;;
16516;SDS011;8371;52.272;9.746;2022-09-24T08:50:24;2.83;;;2.73;;
16516;SDS011;8371;52.272;9.746;2022-09-24T08:55:45;2.57;;;2.47;;
16516;SDS011;8371;52.272;9.746;2022-09-24T08:58:19;2.73;;;2.63;;
16516;SDS011;8371;52.272;9.746;2022-09-24T09:09:03;2.80;;;2.70;;
16516;SDS011;8371;52.272;9.746;2022-09-24T09:11:35;2.60;;;2.53;;
16516;SDS011;8371;52.272;9.746;2022-09-24T09:14:08;2.60;;;2.50;;
16516;SDS011;8371;52.272;9.746;2022-09-24T09:16:48;2.70;;;2.60;;
16516;SDS011;8371;52.272;9.746;2022-09-24T09:19:17;2.73;;;2.63;;
16516;SDS011;8371;52.272;9.746;2022-09-24T09:21:51;2.90;;;2.80;;
16516;SDS011;8371;52.272;9.746;2022-09-24T09:24:18;2.77;;;2.70;;
16516;SDS011;8371;52.272;9.746;2022-09-24T09:26:48;2.60;;;2.50;;
16516;SDS011;8371;52.272;9.746;2022-09-24T09:29:19;2.97;;;2.77;;
16516;SDS011;8371;52.272;9.746;2022-09-24T09:34:35;3.43;;;3.23;;
16516;SDS011;8371;52.272;9.746;2022-09-24T09:37:17;3.83;;;3.53;;
16516;SDS011;8371;52.272;9.746;2022-09-24T09:42:33;3.30;;;3.10;;
16516;SDS011;8371;52.272;9.746;2022-09-24T09:48:08;3.23;;;3.13;;
16516;SDS011;8371;52.272;9.746;2022-09-24T09:50:44;3.17;;;3.07;;
16516;SDS011;8371;52.272;9.746;2022-09-24T09:55:51;4.23;;;4.03;;
16516;SDS011;8371;52.272;9.746;2022-09-24T09:58:23;3.30;;;3.20;;
16516;SDS011;8371;52.272;9.746;2022-09-24T10:00:51;3.57;;;3.47;;
16516;SDS011;8371;52.272;9.746;2022-09-24T10:03:22;4.47;;;4.27;;
16516;SDS011;8371;52.272;9.746;2022-09-24T10:05:52;6.00;;;4.53;;
16516;SDS011;8371;52.272;9.746;2022-09-24T10:08:21;4.97;;;4.77;;
16516;SDS011;8371;52.272;9.746;2022-09-24T10:10:52;4.37;;;4.17;;
16516;SDS011;8371;52.272;9.746;2022-09-24T10:13:19;4.80;;;4.60;;
16516;SDS011;8371;52.272;9.746;2022-09-24T10:18:31;4.43;;;4.27;;
16516;SDS011;8371;52.272;9.746;2022-09-24T10:21:04;4.47;;;4.07;;
16516;SDS011;8371;52.272;9.746;2022-09-24T10:23:31;4.50;;;4.20;;
16516;SDS011;8371;52.272;9.746;2022-09-24T10:26:01;4.17;;;3.97;;
16516;SDS011;8371;52.272;9.746;2022-09-24T10:28:28;3.73;;;3.63;;
16516;SDS011;8371;52.272;9.746;2022-09-24T10:31:21;6.33;;;4.50;;
16516;SDS011;8371;52.272;9.746;2022-09-24T10:33:49;3.70;;;3.60;;
16516;SDS011;8371;52.272;9.746;2022-09-24T10:36:25;3.90;;;3.70;;
16516;SDS011;8371;52.272;9.746;2022-09-24T10:39:03;4.10;;;3.90;;
16516;SDS011;8371;52.272;9.746;2022-09-24T10:41:34;3.80;;;3.70;;
16516;SDS011;8371;52.272;9.746;2022-09-24T10:44:05;5.03;;;4.50;;
16516;SDS011;8371;52.272;9.746;2022-09-24T10:46:39;4.40;;;4.10;;
16516;SDS011;8371;52.272;9.746;2022-09-24T10:49:17;3.60;;;3.40;;
16516;SDS011;8371;52.272;9.746;2022-09-24T10:54:48;3.97;;;3.57;;
16516;SDS011;8371;52.272;9.746;2022-09-24T11:00:19;3.67;;;3.53;;
16516;SDS011;8371;52.272;9.746;2022-09-24T11:05:22;3.80;;;3.67;;
16516;SDS011;8371;52.272;9.746;2022-09-24T11:18:47;4.17;;;3.97;;
16516;SDS011;8371;52.272;9.746;2022-09-24T11:24:14;3.83;;;3.63;;
16516;SDS011;8371;52.272;9.746;2022-09-24T11:26:47;3.67;;;3.57;;
16516;SDS011;8371;52.272;9.746;2022-09-24T11:29:32;4.27;;;4.07;;
16516;SDS011;8371;52.272;9.746;2022-09-24T11:34:54;3.87;;;3.77;;
16516;SDS011;8371;52.272;9.746;2022-09-24T11:45:44;3.23;;;3.03;;
16516;SDS011;8371;52.272;9.746;2022-09-24T11:48:14;4.00;;;3.80;;
16516;SDS011;8371;52.272;9.746;2022-09-24T11:55:53;4.03;;;3.90;;
16516;SDS011;8371;52.272;9.746;2022-09-24T11:58:30;3.77;;;3.67;;
16516;SDS011;8371;52.272;9.746;2022-09-24T12:01:03;4.50;;;4.37;;
16516;SDS011;8371;52.272;9.746;2022-09-24T12:06:37;4.00;;;3.90;;
16516;SDS011;8371;52.272;9.746;2022-09-24T12:09:11;3.67;;;3.47;;
16516;SDS011;8371;52.272;9.746;2022-09-24T12:11:44;3.70;;;3.60;;
16516;SDS011;8371;52.272;9.746;2022-09-24T12:14:30;3.63;;;3.43;;
16516;SDS011;8371;52.272;9.746;2022-09-24T12:17:00;3.97;;;3.67;;
16516;SDS011;8371;52.272;9.746;2022-09-24T12:19:42;4.00;;;3.73;;
16516;SDS011;8371;52.272;9.746;2022-09-24T12:22:28;3.30;;;3.20;;
16516;SDS011;8371;52.272;9.746;2022-09-24T12:24:56;3.67;;;3.57;;
16516;SDS011;8371;52.272;9.746;2022-09-24T12:27:27;3.73;;;3.53;;
16516;SDS011;8371;52.272;9.746;2022-09-24T12:30:21;4.00;;;3.80;;
16516;SDS011;8371;52.272;9.746;2022-09-24T12:33:18;3.50;;;3.40;;
16516;SDS011;8371;52.272;9.746;2022-09-24T12:41:02;3.80;;;3.70;;
16516;SDS011;8371;52.272;9.746;2022-09-24T12:43:34;3.63;;;3.33;;
16516;SDS011;8371;52.272;9.746;2022-09-24T12:46:11;3.47;;;3.37;;
16516;SDS011;8371;52.272;9.746;2022-09-24T12:48:41;4.20;;;4.00;;
16516;SDS011;8371;52.272;9.746;2022-09-24T12:51:08;3.33;;;3.23;;
16516;SDS011;8371;52.272;9.746;2022-09-24T12:53:35;3.80;;;3.60;;
16516;SDS011;8371;52.272;9.746;2022-09-24T12:56:03;3.83;;;3.73;;
16516;SDS011;8371;52.272;9.746;2022-09-24T12:58:41;3.40;;;3.30;;
16516;SDS011;8371;52.272;9.746;2022-09-24T13:01:12;4.13;;;3.93;;
16516;SDS011;8371;52.272;9.746;2022-09-24T13:03:41;3.53;;;3.33;;
16516;SDS011;8371;52.272;9.746;2022-09-24T13:06:21;4.27;;;4.07;;
16516;SDS011;8371;52.272;9.746;2022-09-24T13:09:01;3.53;;;3.43;;
16516;SDS011;8371;52.272;9.746;2022-09-24T13:11:32;3.20;;;3.10;;
16516;SDS011;8371;52.272;9.746;2022-09-24T13:16:40;3.27;;;3.17;;
16516;SDS011;8371;52.272;9.746;2022-09-24T13:19:20;3.37;;;3.17;;
16516;SDS011;8371;52.272;9.746;2022-09-24T13:21:54;3.50;;;3.27;;
16516;SDS011;8371;52.272;9.746;2022-09-24T13:24:24;2.77;;;2.67;;
16516;SDS011;8371;52.272;9.746;2022-09-24T13:29:46;3.70;;;3.50;;
16516;SDS011;8371;52.272;9.746;2022-09-24T13:32:17;3.57;;;3.47;;
16516;SDS011;8371;52.272;9.746;2022-09-24T13:34:45;3.43;;;3.23;;
16516;SDS011;8371;52.272;9.746;2022-09-24T13:37:14;3.20;;;3.10;;
16516;SDS011;8371;52.272;9.746;2022-09-24T13:39:47;3.53;;;3.27;;
16516;SDS011;8371;52.272;9.746;2022-09-24T13:42:19;3.33;;;3.23;;
16516;SDS011;8371;52.272;9.746;2022-09-24T13:44:48;3.13;;;3.03;;
16516;SDS011;8371;52.272;9.746;2022-09-24T13:47:39;4.07;;;3.93;;
16516;SDS011;8371;52.272;9.746;2022-09-24T13:50:18;4.20;;;4.00;;
16516;SDS011;8371;52.272;9.746;2022-09-24T13:55:47;3.53;;;3.43;;
16516;SDS011;8371;52.272;9.746;2022-09-24T13:58:28;5.00;;;4.80;;
16516;SDS011;8371;52.272;9.746;2022-09-24T14:01:02;6.83;;;6.43;;
16516;SDS011;8371;52.272;9.746;2022-09-24T14:05:59;6.43;;;6.13;;
16516;SDS011;8371;52.272;9.746;2022-09-24T14:08:26;6.67;;;6.37;;
16516;SDS011;8371;52.272;9.746;2022-09-24T14:11:06;5.40;;;5.17;;
16516;SDS011;8371;52.272;9.746;2022-09-24T14:13:34;4.83;;;4.63;;
16516;SDS011;8371;52.272;9.746;2022-09-24T14:16:09;4.30;;;4.10;;
16516;SDS011;8371;52.272;9.746;2022-09-24T14:18:37;4.07;;;3.97;;
16516;SDS011;8371;52.272;9.746;2022-09-24T14:21:08;4.67;;;4.47;;
16516;SDS011;8371;52.272;9.746;2022-09-24T14:23:44;4.50;;;4.30;;
16516;SDS011;8371;52.272;9.746;2022-09-24T14:26:17;4.47;;;4.27;;
16516;SDS011;8371;52.272;9.746;2022-09-24T14:29:10;4.13;;;3.97;;
16516;SDS011;8371;52.272;9.746;2022-09-24T14:31:32;4.37;;;4.17;;
16516;SDS011;8371;52.272;9.746;2022-09-24T14:34:33;3.87;;;3.77;;
16516;SDS011;8371;52.272;9.746;2022-09-24T14:36:49;3.77;;;3.57;;
16516;SDS011;8371;52.272;9.746;2022-09-24T14:39:15;3.87;;;3.77;;
16516;SDS011;8371;52.272;9.746;2022-09-24T14:41:41;4.43;;;4.23;;
16516;SDS011;8371;52.272;9.746;2022-09-24T14:46:46;4.47;;;4.27;;
16516;SDS011;8371;52.272;9.746;2022-09-24T14:49:17;4.40;;;4.20;;
16516;SDS011;8371;52.272;9.746;2022-09-24T14:52:04;4.00;;;3.90;;
16516;SDS011;8371;52.272;9.746;2022-09-24T14:54:24;4.07;;;3.93;;
16516;SDS011;8371;52.272;9.746;2022-09-24T14:59:46;4.33;;;4.13;;
16516;SDS011;8371;52.272;9.746;2022-09-24T15:02:14;4.57;;;4.37;;
16516;SDS011;8371;52.272;9.746;2022-09-24T15:04:45;4.30;;;4.13;;
16516;SDS011;8371;52.272;9.746;2022-09-24T15:07:21;4.60;;;4.40;;
16516;SDS011;8371;52.272;9.746;2022-09-24T15:09:50;4.13;;;3.93;;
16516;SDS011;8371;52.272;9.746;2022-09-24T15:12:19;4.70;;;4.50;;
16516;SDS011;8371;52.272;9.746;2022-09-24T15:14:52;4.53;;;4.33;;
16516;SDS011;8371;52.272;9.746;2022-09-24T15:17:21;4.37;;;4.07;;
16516;SDS011;8371;52.272;9.746;2022-09-24T15:19:47;5.90;;;4.17;;
16516;SDS011;8371;52.272;9.746;2022-09-24T15:22:15;4.60;;;4.40;;
16516;SDS011;8371;52.272;9.746;2022-09-24T15:24:41;4.60;;;4.40;;
16516;SDS011;8371;52.272;9.746;2022-09-24T15:27:14;5.17;;;3.93;;
16516;SDS011;8371;52.272;9.746;2022-09-24T15:29:42;4.20;;;4.00;;
16516;SDS011;8371;52.272;9.746;2022-09-24T15:32:15;4.50;;;4.30;;
16516;SDS011;8371;52.272;9.746;2022-09-24T15:34:43;4.80;;;4.60;;
16516;SDS011;8371;52.272;9.746;2022-09-24T15:37:10;4.27;;;4.10;;
16516;SDS011;8371;52.272;9.746;2022-09-24T15:39:38;4.33;;;4.03;;
16516;SDS011;8371;52.272;9.746;2022-09-24T15:42:04;4.63;;;4.43;;
16516;SDS011;8371;52.272;9.746;2022-09-24T15:44:30;4.23;;;4.03;;
16516;SDS011;8371;52.272;9.746;2022-09-24T15:46:56;4.43;;;4.27;;
16516;SDS011;8371;52.272;9.746;2022-09-24T15:49:21;4.03;;;3.93;;
16516;SDS011;8371;52.272;9.746;2022-09-24T15:54:23;4.40;;;4.20;;
16516;SDS011;8371;52.272;9.746;2022-09-24T15:56:49;4.17;;;4.00;;
16516;SDS011;8371;52.272;9.746;2022-09-24T15:59:17;4.53;;;4.33;;
16516;SDS011;8371;52.272;9.746;2022-09-24T16:01:44;4.37;;;4.17;;
16516;SDS011;8371;52.272;9.746;2022-09-24T16:04:11;4.40;;;4.10;;
16516;SDS011;8371;52.272;9.746;2022-09-24T16:06:37;4.50;;;4.30;;
16516;SDS011;8371;52.272;9.746;2022-09-24T16:09:03;4.93;;;4.63;;
16516;SDS011;8371;52.272;9.746;2022-09-24T16:11:29;3.80;;;3.70;;
16516;SDS011;8371;52.272;9.746;2022-09-24T16:13:56;4.77;;;4.47;;
16516;SDS011;8371;52.272;9.746;2022-09-24T16:16:22;4.43;;;4.27;;
16516;SDS011;8371;52.272;9.746;2022-09-24T16:18:48;4.53;;;4.33;;
16516;SDS011;8371;52.272;9.746;2022-09-24T16:21:13;4.70;;;4.50;;
16516;SDS011;8371;52.272;9.746;2022-09-24T16:23:39;3.77;;;3.67;;
16516;SDS011;8371;52.272;9.746;2022-09-24T16:26:05;4.20;;;4.00;;
16516;SDS011;8371;52.272;9.746;2022-09-24T16:28:31;4.30;;;4.10;;
16516;SDS011;8371;52.272;9.746;2022-09-24T16:30:57;4.63;;;4.43;;
16516;SDS011;8371;52.272;9.746;2022-09-24T16:33:23;3.63;;;3.53;;
16516;SDS011;8371;52.272;9.746;2022-09-24T16:35:49;4.33;;;4.13;;
16516;SDS011;8371;52.272;9.746;2022-09-24T16:38:16;4.27;;;4.07;;
16516;SDS011;8371;52.272;9.746;2022-09-24T16:40:42;4.07;;;3.87;;
16516;SDS011;8371;52.272;9.746;2022-09-24T16:43:08;4.37;;;4.17;;
16516;SDS011;8371;52.272;9.746;2022-09-24T16:45:34;3.37;;;3.17;;
16516;SDS011;8371;52.272;9.746;2022-09-24T16:48:00;4.63;;;4.33;;
16516;SDS011;8371;52.272;9.746;2022-09-24T16:50:26;4.33;;;4.13;;
16516;SDS011;8371;52.272;9.746;2022-09-24T16:52:51;4.53;;;4.33;;
16516;SDS011;8371;52.272;9.746;2022-09-24T16:55:19;3.90;;;3.70;;
16516;SDS011;8371;52.272;9.746;2022-09-24T16:57:47;5.00;;;4.80;;
16516;SDS011;8371;52.272;9.746;2022-09-24T17:00:13;4.20;;;4.10;;
16516;SDS011;8371;52.272;9.746;2022-09-24T17:02:39;4.13;;;3.83;;
16516;SDS011;8371;52.272;9.746;2022-09-24T17:05:05;4.63;;;4.43;;
16516;SDS011;8371;52.272;9.746;2022-09-24T17:07:32;4.87;;;4.67;;